Time;durP1;ratioP1;P1;durP2;ratioP2;P2;SDS_P1;SDS_P2;PMS_P1;PMS_P2;Temp;Humidity;BMP_temperature;BMP_pressure;BME280_temperature;BME280_humidity;BME280_pressure;Samples;Min_cycle;Max_cycle;Signal;HPM_P1;HPM_P2
2022/09/23 00:01:14;;;;;;;13.35;11.15;;;9.60;99.90;;;;;;5071576;28;19924;-52
2022/09/23 00:03:44;;;;;;;11.50;10.43;;;9.60;99.90;;;;;;5072140;28;20044;-56
2022/09/23 00:06:12;;;;;;;13.68;12.38;;;9.50;99.90;;;;;;5071088;28;20467;-55
2022/09/23 00:08:39;;;;;;;15.82;14.50;;;9.50;99.90;;;;;;5071349;28;20128;-54
2022/09/23 00:11:06;;;;;;;18.48;15.52;;;9.40;99.90;;;;;;5071324;28;20048;-55
2022/09/23 00:13:33;;;;;;;16.13;14.43;;;9.50;99.90;;;;;;5070977;28;20044;-56
2022/09/23 00:16:07;;;;;;;19.65;13.40;;;9.50;99.90;;;;;;5072301;28;20535;-55
2022/09/23 00:18:33;;;;;;;15.02;13.55;;;9.50;99.90;;;;;;5071697;28;20047;-54
2022/09/23 00:21:08;;;;;;;15.55;13.95;;;9.50;99.90;;;;;;5090531;28;20036;-56
2022/09/23 00:23:34;;;;;;;15.98;14.15;;;9.50;99.90;;;;;;5090867;28;20032;-56
2022/09/23 00:26:02;;;;;;;16.42;14.73;;;9.50;99.90;;;;;;5077227;28;20523;-53
2022/09/23 00:28:28;;;;;;;18.85;15.48;;;9.50;99.90;;;;;;5069558;28;20055;-56
2022/09/23 00:30:54;;;;;;;17.40;14.77;;;9.50;99.90;;;;;;5071075;28;20051;-55
2022/09/23 00:33:20;;;;;;;15.43;13.68;;;9.50;99.90;;;;;;5070466;28;20417;-52
2022/09/23 00:35:46;;;;;;;14.80;13.53;;;9.50;99.90;;;;;;5079224;28;20489;-52
2022/09/23 00:38:13;;;;;;;17.52;14.40;;;9.50;99.90;;;;;;5091066;28;20316;-55
2022/09/23 00:40:45;;;;;;;15.10;13.52;;;9.60;99.90;;;;;;5091045;28;20040;-53
2022/09/23 00:43:13;;;;;;;13.95;12.63;;;9.60;99.90;;;;;;5090675;28;20810;-52
2022/09/23 00:45:43;;;;;;;14.50;12.18;;;9.70;99.90;;;;;;5089209;28;20048;-52
2022/09/23 00:48:15;;;;;;;14.82;13.35;;;9.70;99.90;;;;;;5090329;28;20075;-52
2022/09/23 00:50:44;;;;;;;14.02;12.60;;;9.80;99.90;;;;;;5089629;28;20044;-52
2022/09/23 00:53:13;;;;;;;14.40;13.10;;;9.80;99.90;;;;;;5095974;28;20040;-54
2022/09/23 00:55:44;;;;;;;13.27;12.07;;;9.80;99.90;;;;;;5109093;28;20097;-52
2022/09/23 00:58:13;;;;;;;12.73;11.52;;;9.80;99.90;;;;;;5084434;28;20034;-53
2022/09/23 01:00:40;;;;;;;13.35;11.98;;;9.80;99.90;;;;;;5108832;28;20046;-52
2022/09/23 01:03:06;;;;;;;16.80;12.63;;;9.80;99.90;;;;;;5099428;28;20116;-53
2022/09/23 01:05:32;;;;;;;11.50;10.40;;;9.80;99.90;;;;;;5095026;28;20543;-55
2022/09/23 01:08:01;;;;;;;12.65;11.40;;;9.70;99.90;;;;;;5095495;28;20114;-52
2022/09/23 01:10:36;;;;;;;13.38;11.85;;;9.60;99.90;;;;;;5096342;28;20132;-52
2022/09/23 01:13:16;;;;;;;13.90;12.43;;;9.60;99.90;;;;;;5089904;28;20046;-55
2022/09/23 01:15:50;;;;;;;14.60;13.10;;;9.60;99.90;;;;;;5090362;28;20044;-52
2022/09/23 01:18:24;;;;;;;12.90;11.65;;;9.60;99.90;;;;;;5089810;28;20107;-53
2022/09/23 01:21:14;;;;;;;13.65;12.30;;;9.60;99.90;;;;;;5085027;28;20583;-53
2022/09/23 01:23:57;;;;;;;12.45;11.30;;;9.70;99.90;;;;;;5069323;28;20067;-55
2022/09/23 01:26:43;;;;;;;13.50;11.80;;;9.70;99.90;;;;;;5070343;28;20051;-52
2022/09/23 01:29:39;;;;;;;13.52;11.63;;;9.70;99.90;;;;;;5090369;28;20114;-55
2022/09/23 01:32:17;;;;;;;12.68;11.38;;;9.60;99.90;;;;;;5089353;28;20051;-52
2022/09/23 01:34:51;;;;;;;11.90;10.70;;;9.60;99.90;;;;;;5089879;28;20105;-52
2022/09/23 01:37:25;;;;;;;13.40;11.02;;;9.40;99.90;;;;;;5088668;28;20036;-53
2022/09/23 01:40:00;;;;;;;14.10;12.65;;;9.30;99.90;;;;;;5088486;28;20054;-54
2022/09/23 01:42:41;;;;;;;13.20;11.85;;;9.30;99.90;;;;;;5089624;28;20400;-52
2022/09/23 01:45:18;;;;;;;13.50;12.30;;;9.20;99.90;;;;;;5090060;28;20044;-53
2022/09/23 01:47:53;;;;;;;13.23;11.77;;;9.20;99.90;;;;;;5077918;28;20045;-55
2022/09/23 01:53:31;;;;;;;13.95;12.55;;;9.30;99.90;;;;;;5069661;28;20049;-57
2022/09/23 01:56:02;;;;;;;13.75;12.55;;;9.30;99.90;;;;;;5069853;28;20063;-57
2022/09/23 01:59:00;;;;;;;12.30;11.10;;;9.30;99.90;;;;;;5070799;28;20036;-57
2022/09/23 02:02:07;;;;;;;12.73;11.50;;;9.40;99.90;;;;;;5064871;28;20642;-56
2022/09/23 02:04:56;;;;;;;12.35;11.27;;;9.40;99.90;;;;;;5071024;28;20169;-56
2022/09/23 02:07:33;;;;;;;11.73;10.23;;;9.40;99.90;;;;;;5073542;28;20044;-57
2022/09/23 02:10:24;;;;;;;12.23;11.02;;;9.40;99.90;;;;;;5092290;28;20079;-56
2022/09/23 02:12:53;;;;;;;13.25;11.40;;;9.40;99.90;;;;;;5097755;28;20044;-57
2022/09/23 02:15:24;;;;;;;14.57;11.02;;;9.40;99.90;;;;;;5094194;28;20044;-56
2022/09/23 02:17:54;;;;;;;12.82;11.32;;;9.40;99.90;;;;;;5103237;28;20050;-57
2022/09/23 02:20:28;;;;;;;11.18;10.27;;;9.30;99.90;;;;;;5092698;28;20126;-53
2022/09/23 02:23:11;;;;;;;12.10;11.00;;;9.30;99.90;;;;;;5092996;28;20032;-56
2022/09/23 02:26:01;;;;;;;11.60;10.40;;;9.40;99.90;;;;;;5093897;28;20044;-56
2022/09/23 02:28:42;;;;;;;12.70;11.70;;;9.30;99.90;;;;;;5092309;28;20067;-55
2022/09/23 02:31:18;;;;;;;12.32;11.13;;;9.30;99.90;;;;;;5093447;28;20044;-53
2022/09/23 02:34:20;;;;;;;12.65;11.45;;;9.30;99.90;;;;;;5093136;28;20040;-56
2022/09/23 02:37:00;;;;;;;15.70;11.98;;;9.20;99.90;;;;;;5091818;28;20056;-54
2022/09/23 02:39:36;;;;;;;12.50;11.20;;;9.20;99.90;;;;;;5087776;28;20112;-54
2022/09/23 02:42:08;;;;;;;12.93;11.50;;;9.20;99.90;;;;;;5072633;28;20501;-56
2022/09/23 02:44:34;;;;;;;13.85;11.60;;;9.20;99.90;;;;;;5074762;28;20040;-55
2022/09/23 02:47:01;;;;;;;12.55;11.30;;;9.20;99.90;;;;;;5092460;28;20039;-54
2022/09/23 02:49:29;;;;;;;11.82;10.82;;;9.20;99.90;;;;;;5091561;28;20048;-52
2022/09/23 02:51:58;;;;;;;12.52;11.15;;;9.20;99.90;;;;;;5093208;28;20304;-52
2022/09/23 02:54:27;;;;;;;12.30;11.05;;;9.20;99.90;;;;;;5092854;28;20192;-52
2022/09/23 02:56:53;;;;;;;12.38;11.10;;;9.10;99.90;;;;;;5092663;28;20036;-54
2022/09/23 02:59:21;;;;;;;13.82;10.18;;;9.10;99.90;;;;;;5091481;28;20036;-55
2022/09/23 03:01:56;;;;;;;11.75;10.75;;;9.10;99.90;;;;;;5090921;28;20044;-54
2022/09/23 03:04:58;;;;;;;11.52;10.43;;;9.10;99.90;;;;;;5092435;28;20028;-52
2022/09/23 03:07:42;;;;;;;11.95;10.75;;;9.10;99.90;;;;;;5092623;28;20047;-55
2022/09/23 03:10:24;;;;;;;13.38;10.63;;;9.10;99.90;;;;;;5092608;28;20585;-52
2022/09/23 03:13:34;;;;;;;10.90;9.80;;;9.10;99.90;;;;;;5071330;28;20049;-54
2022/09/23 03:16:18;;;;;;;14.70;9.88;;;9.10;99.90;;;;;;5071810;28;20045;-56
2022/09/23 03:18:48;;;;;;;12.38;10.50;;;9.10;99.90;;;;;;5084693;28;20074;-55
2022/09/23 03:21:25;;;;;;;12.35;10.65;;;9.10;99.90;;;;;;5093509;28;20046;-53
2022/09/23 03:23:53;;;;;;;12.43;11.10;;;9.00;99.90;;;;;;5109133;28;20039;-53
2022/09/23 03:26:26;;;;;;;13.43;11.38;;;9.00;99.90;;;;;;5095647;28;20424;-54
2022/09/23 03:28:52;;;;;;;12.02;10.95;;;9.00;99.90;;;;;;5092608;28;20040;-55
2022/09/23 03:31:18;;;;;;;13.07;10.45;;;9.00;99.90;;;;;;5089777;28;20032;-52
2022/09/23 03:33:57;;;;;;;11.82;10.60;;;8.90;99.90;;;;;;5071795;28;20036;-54
2022/09/23 03:36:56;;;;;;;12.18;10.95;;;8.90;99.90;;;;;;5072161;28;20405;-52
2022/09/23 03:39:39;;;;;;;11.35;10.20;;;8.90;99.90;;;;;;5079466;28;20445;-52
2022/09/23 03:42:19;;;;;;;12.15;10.98;;;8.80;99.90;;;;;;5087954;28;20503;-54
2022/09/23 03:44:46;;;;;;;12.10;11.10;;;8.80;99.90;;;;;;5085619;28;20067;-55
2022/09/23 03:47:14;;;;;;;10.98;9.95;;;8.80;99.90;;;;;;5073647;28;20048;-52
2022/09/23 03:49:43;;;;;;;14.15;11.07;;;8.80;99.90;;;;;;5092043;28;20097;-53
2022/09/23 03:52:08;;;;;;;13.45;11.18;;;8.80;99.90;;;;;;5090585;28;20044;-53
2022/09/23 03:54:34;;;;;;;12.73;10.70;;;8.70;99.90;;;;;;5090301;28;20059;-53
2022/09/23 03:57:01;;;;;;;12.63;11.33;;;8.70;99.90;;;;;;5091164;28;20063;-55
2022/09/23 03:59:29;;;;;;;15.43;11.63;;;8.70;99.90;;;;;;5091788;28;20093;-54
2022/09/23 04:01:55;;;;;;;12.57;11.10;;;8.70;99.90;;;;;;5090063;28;20141;-55
2022/09/23 04:04:21;;;;;;;12.07;10.90;;;8.60;99.90;;;;;;5089983;28;20032;-53
2022/09/23 04:06:47;;;;;;;12.13;10.85;;;8.60;99.90;;;;;;5088484;28;20100;-56
2022/09/23 04:09:13;;;;;;;11.50;10.50;;;8.60;99.90;;;;;;5071417;28;20037;-53
2022/09/23 04:11:38;;;;;;;12.05;10.75;;;8.60;99.90;;;;;;5071118;28;20177;-56
2022/09/23 04:14:04;;;;;;;12.50;11.23;;;8.60;99.90;;;;;;5069618;28;20036;-56
2022/09/23 04:16:30;;;;;;;11.63;10.52;;;8.60;99.90;;;;;;5070997;28;20477;-57
2022/09/23 04:18:55;;;;;;;13.95;12.55;;;8.60;99.90;;;;;;5072350;28;20071;-56
2022/09/23 04:21:21;;;;;;;11.97;10.97;;;8.60;99.90;;;;;;5071460;28;20051;-56
2022/09/23 04:23:46;;;;;;;12.63;11.53;;;8.60;99.90;;;;;;5070804;28;20041;-56
2022/09/23 04:26:13;;;;;;;13.33;12.10;;;8.50;99.90;;;;;;5090038;28;20035;-56
2022/09/23 04:28:38;;;;;;;13.10;11.85;;;8.50;99.90;;;;;;5098516;28;20278;-57
2022/09/23 04:31:05;;;;;;;12.93;11.73;;;8.50;99.90;;;;;;5093799;28;20050;-56
2022/09/23 04:33:31;;;;;;;12.93;11.57;;;8.50;99.90;;;;;;5089999;28;20126;-56
2022/09/23 04:35:57;;;;;;;13.60;11.73;;;8.50;99.90;;;;;;5097578;28;20123;-56
2022/09/23 04:38:23;;;;;;;12.40;11.07;;;8.50;99.90;;;;;;5095927;28;20032;-52
2022/09/23 04:40:48;;;;;;;12.23;11.23;;;8.50;99.90;;;;;;5070574;28;20040;-55
2022/09/23 04:43:15;;;;;;;13.73;10.35;;;8.50;99.90;;;;;;5070330;28;20040;-53
2022/09/23 04:45:41;;;;;;;;;;;8.50;99.90;;;;;;5070582;28;20124;-56
2022/09/23 04:48:09;;;;;;;12.32;11.05;;;8.50;99.90;;;;;;5070521;28;20385;-55
2022/09/23 04:50:36;;;;;;;12.82;11.65;;;8.50;99.90;;;;;;5088496;28;20110;-53
2022/09/23 04:53:02;;;;;;;12.63;11.32;;;8.50;99.90;;;;;;5090236;28;20055;-55
2022/09/23 04:55:28;;;;;;;13.82;11.00;;;8.40;99.90;;;;;;5089716;28;20047;-52
2022/09/23 04:57:54;;;;;;;12.02;10.75;;;8.40;99.90;;;;;;5090582;28;20032;-54
2022/09/23 05:00:20;;;;;;;15.65;12.55;;;8.40;99.90;;;;;;5088018;28;20078;-54
2022/09/23 05:02:48;;;;;;;14.63;11.50;;;8.40;99.90;;;;;;5090454;28;20409;-55
2022/09/23 05:05:19;;;;;;;12.43;11.32;;;8.40;99.90;;;;;;5090365;28;20043;-52
2022/09/23 05:07:44;;;;;;;14.15;11.80;;;8.40;99.90;;;;;;5089865;28;20485;-53
2022/09/23 05:10:10;;;;;;;12.53;11.30;;;8.40;99.90;;;;;;5089129;28;20043;-54
2022/09/23 05:12:35;;;;;;;14.10;11.43;;;8.50;99.90;;;;;;5090683;28;20349;-54
2022/09/23 05:15:01;;;;;;;16.23;11.33;;;8.40;99.90;;;;;;5089832;28;20048;-53
2022/09/23 05:17:27;;;;;;;14.47;11.43;;;8.50;99.90;;;;;;5090622;28;20512;-52
2022/09/23 05:19:53;;;;;;;12.15;11.05;;;8.40;99.90;;;;;;5090603;28;20305;-55
2022/09/23 05:22:18;;;;;;;12.83;11.60;;;8.40;99.90;;;;;;5088381;28;20066;-55
2022/09/23 05:24:44;;;;;;;12.67;11.57;;;8.30;99.90;;;;;;5090751;28;20047;-53
2022/09/23 05:27:10;;;;;;;12.95;10.32;;;8.30;99.90;;;;;;5090508;28;20593;-55
2022/09/23 05:29:37;;;;;;;12.33;11.17;;;8.30;99.90;;;;;;5089249;28;20082;-54
2022/09/23 05:32:03;;;;;;;11.77;10.77;;;8.20;99.90;;;;;;5088662;28;20044;-53
2022/09/23 05:34:28;;;;;;;12.05;10.80;;;8.20;99.90;;;;;;5101324;28;20518;-54
2022/09/23 05:36:54;;;;;;;12.53;11.33;;;8.10;99.90;;;;;;5088794;28;20036;-55
2022/09/23 05:39:19;;;;;;;13.33;11.90;;;8.00;99.90;;;;;;5091873;28;20097;-52
2022/09/23 05:41:45;;;;;;;12.93;11.53;;;8.00;99.90;;;;;;5093618;28;20115;-54
2022/09/23 05:44:10;;;;;;;14.43;12.70;;;7.90;99.90;;;;;;5093643;28;20169;-53
2022/09/23 05:46:36;;;;;;;13.50;11.13;;;7.90;99.90;;;;;;5094382;28;20036;-52
2022/09/23 05:49:04;;;;;;;17.38;13.45;;;7.90;99.90;;;;;;5093990;28;20219;-52
2022/09/23 05:51:31;;;;;;;13.07;11.88;;;7.90;99.90;;;;;;5085121;28;20040;-54
2022/09/23 05:53:57;;;;;;;14.30;12.77;;;8.00;99.90;;;;;;5074481;28;20041;-53
2022/09/23 05:56:24;;;;;;;12.63;11.43;;;8.10;99.90;;;;;;5073495;28;20043;-52
2022/09/23 05:58:55;;;;;;;12.48;11.18;;;8.30;99.90;;;;;;5073748;28;20531;-53
2022/09/23 06:01:26;;;;;;;11.95;10.68;;;8.50;99.90;;;;;;5074826;28;20554;-53
2022/09/23 06:03:53;;;;;;;11.73;9.90;;;8.70;99.90;;;;;;5073460;28;20317;-53
2022/09/23 06:06:31;;;;;;;11.43;10.23;;;8.90;99.90;;;;;;5073559;28;20577;-52
2022/09/23 06:09:00;;;;;;;12.88;10.68;;;9.00;99.90;;;;;;5073170;28;20072;-55
2022/09/23 06:11:28;;;;;;;11.70;10.50;;;9.10;99.90;;;;;;5088603;28;20036;-55
2022/09/23 06:13:56;;;;;;;14.90;11.23;;;9.20;99.90;;;;;;5075085;28;20029;-54
2022/09/23 06:16:22;;;;;;;11.02;9.93;;;9.30;99.90;;;;;;5073290;28;20037;-53
2022/09/23 06:18:47;;;;;;;10.47;9.67;;;9.40;99.90;;;;;;5089208;28;20046;-54
2022/09/23 06:21:15;;;;;;;13.70;10.13;;;9.60;99.90;;;;;;5094369;28;20489;-54
2022/09/23 06:23:41;;;;;;;9.95;8.98;;;9.80;99.90;;;;;;5080420;28;20028;-55
2022/09/23 06:26:09;;;;;;;10.68;9.65;;;10.10;99.90;;;;;;5076177;28;20040;-55
2022/09/23 06:28:38;;;;;;;11.68;9.73;;;10.40;99.90;;;;;;5073742;28;20119;-52
2022/09/23 06:31:07;;;;;;;11.02;10.02;;;10.70;99.90;;;;;;5112128;28;20032;-55
2022/09/23 06:33:33;;;;;;;11.40;10.30;;;11.10;99.90;;;;;;5104940;28;20032;-54
2022/09/23 06:36:02;;;;;;;8.90;8.00;;;11.20;99.90;;;;;;5092385;28;20041;-55
2022/09/23 06:38:28;;;;;;;13.60;9.05;;;11.10;99.90;;;;;;5074707;28;20047;-53
2022/09/23 06:40:55;;;;;;;8.82;8.10;;;11.10;99.90;;;;;;5107914;28;20042;-53
2022/09/23 06:43:22;;;;;;;10.68;9.57;;;11.10;99.90;;;;;;5112077;28;20032;-55
2022/09/23 06:45:55;;;;;;;13.48;10.52;;;11.00;99.90;;;;;;5094719;28;20620;-54
2022/09/23 06:48:23;;;;;;;12.48;11.15;;;11.00;99.90;;;;;;5092411;28;20040;-56
2022/09/23 06:50:49;;;;;;;14.13;10.18;;;11.00;99.90;;;;;;5082262;28;20425;-53
2022/09/23 06:53:16;;;;;;;12.73;10.52;;;11.00;99.90;;;;;;5081592;28;20032;-55
2022/09/23 06:55:42;;;;;;;13.48;10.32;;;10.90;99.90;;;;;;5087503;28;20409;-56
2022/09/23 06:58:08;;;;;;;12.82;9.40;;;10.90;99.90;;;;;;5091111;28;20047;-53
2022/09/23 07:00:34;;;;;;;14.48;10.38;;;10.80;99.90;;;;;;5105036;28;20127;-55
2022/09/23 07:03:00;;;;;;;10.75;9.32;;;10.80;99.90;;;;;;5112139;27;20628;-55
2022/09/23 07:05:25;;;;;;;14.52;9.63;;;10.90;99.90;;;;;;5104746;27;20458;-54
2022/09/23 07:07:52;;;;;;;15.50;9.30;;;10.80;99.90;;;;;;5113164;28;20065;-54
2022/09/23 07:10:18;;;;;;;13.52;8.98;;;10.80;99.90;;;;;;5104201;28;20044;-54
2022/09/23 07:12:43;;;;;;;11.40;8.95;;;10.80;99.90;;;;;;5105114;28;20040;-54
2022/09/23 07:15:09;;;;;;;14.27;9.47;;;10.80;99.90;;;;;;5105966;28;20485;-56
2022/09/23 07:17:35;;;;;;;12.32;9.68;;;10.80;99.90;;;;;;5083565;28;20093;-55
2022/09/23 07:20:01;;;;;;;12.47;9.50;;;10.80;99.90;;;;;;5077124;28;20284;-55
2022/09/23 07:22:26;;;;;;;11.07;9.15;;;10.90;99.90;;;;;;5077163;28;20497;-53
2022/09/23 07:24:55;;;;;;;12.33;10.93;;;10.90;99.90;;;;;;5077283;28;20028;-53
2022/09/23 07:27:25;;;;;;;16.15;8.93;;;10.90;99.90;;;;;;5071526;28;20286;-55
2022/09/23 07:29:51;;;;;;;12.18;9.23;;;11.00;99.90;;;;;;5080127;28;20041;-55
2022/09/23 07:32:18;;;;;;;;;;;11.00;99.90;;;;;;5071440;28;20576;-55
2022/09/23 07:34:45;;;;;;;13.23;9.77;;;11.00;99.90;;;;;;5079283;28;19924;-55
2022/09/23 07:37:12;;;;;;;13.65;8.70;;;11.10;99.90;;;;;;5072086;28;20071;-52
2022/09/23 07:39:38;;;;;;;11.75;9.32;;;11.10;99.90;;;;;;5073415;28;20059;-54
2022/09/23 07:42:05;;;;;;;17.60;9.18;;;11.20;99.90;;;;;;5075441;28;20385;-56
2022/09/23 07:44:31;;;;;;;;;;;11.30;99.90;;;;;;5072129;28;20048;-54
2022/09/23 07:46:57;;;;;;;15.95;9.77;;;11.30;99.90;;;;;;5075316;28;20404;-53
2022/09/23 07:49:23;;;;;;;;;;;11.40;99.90;;;;;;5079468;28;20072;-56
2022/09/23 07:51:48;;;;;;;12.38;8.40;;;11.50;99.90;;;;;;5076338;28;20419;-54
2022/09/23 07:54:15;;;;;;;9.77;8.77;;;11.50;99.90;;;;;;5072119;28;20040;-55
2022/09/23 07:56:42;;;;;;;14.70;10.10;;;11.60;99.90;;;;;;5075816;28;20875;-57
2022/09/23 07:59:14;;;;;;;11.77;8.68;;;11.70;99.90;;;;;;5074198;28;20093;-55
2022/09/23 08:01:45;;;;;;;11.02;8.93;;;11.70;99.90;;;;;;5069274;28;20070;-55
2022/09/23 08:04:17;;;;;;;13.40;8.90;;;11.80;99.90;;;;;;5071843;28;20033;-55
2022/09/23 08:06:45;;;;;;;11.00;8.88;;;11.80;99.90;;;;;;5075181;28;20044;-55
2022/09/23 08:09:11;;;;;;;10.35;8.90;;;11.90;99.90;;;;;;5075233;28;20039;-53
2022/09/23 08:11:40;;;;;;;12.50;8.73;;;12.00;99.90;;;;;;5074780;28;20521;-53
2022/09/23 08:14:07;;;;;;;9.75;7.85;;;12.00;99.90;;;;;;5075906;28;20051;-57
2022/09/23 08:16:34;;;;;;;10.48;8.07;;;12.10;99.90;;;;;;5080198;28;20073;-55
2022/09/23 08:19:00;;;;;;;12.30;8.52;;;12.10;99.90;;;;;;5073389;28;20489;-56
2022/09/23 08:21:25;;;;;;;10.68;8.25;;;12.20;99.90;;;;;;5076608;28;20082;-53
2022/09/23 08:23:51;;;;;;;14.83;8.83;;;12.30;99.90;;;;;;5070303;28;20044;-54
2022/09/23 08:26:17;;;;;;;8.97;8.17;;;12.30;99.90;;;;;;5072598;28;20105;-53
2022/09/23 08:28:46;;;;;;;12.07;9.32;;;12.40;99.90;;;;;;5075914;28;20040;-56
2022/09/23 08:31:12;;;;;;;9.57;8.57;;;12.50;99.90;;;;;;5074929;28;20044;-56
2022/09/23 08:33:39;;;;;;;9.82;8.82;;;12.50;99.90;;;;;;5070473;28;20040;-57
2022/09/23 08:36:06;;;;;;;11.60;8.65;;;12.60;99.90;;;;;;5077904;28;20039;-55
2022/09/23 08:38:32;;;;;;;9.77;8.50;;;12.70;99.90;;;;;;5069770;28;20225;-57
2022/09/23 08:41:16;;;;;;;12.95;9.02;;;12.70;99.90;;;;;;5073531;28;20414;-56
2022/09/23 08:43:48;;;;;;;11.55;8.10;;;12.90;99.90;;;;;;5069212;28;20033;-55
2022/09/23 08:46:20;;;;;;;13.63;8.30;;;13.00;99.90;;;;;;5075045;28;20074;-54
2022/09/23 08:48:47;;;;;;;13.30;8.52;;;13.10;99.90;;;;;;5072148;28;20077;-55
2022/09/23 08:51:34;;;;;;;10.60;8.13;;;13.30;99.90;;;;;;5076449;28;20063;-54
2022/09/23 08:54:00;;;;;;;10.88;7.78;;;13.30;99.90;;;;;;5068861;28;20485;-57
2022/09/23 08:56:27;;;;;;;;;;;13.50;99.90;;;;;;5074735;28;20490;-57
2022/09/23 08:59:10;;;;;;;15.77;8.02;;;13.50;99.90;;;;;;5073243;28;19920;-56
2022/09/23 09:01:44;;;;;;;15.82;10.02;;;13.60;99.90;;;;;;5080173;28;20485;-56
2022/09/23 09:04:37;;;;;;;8.98;8.07;;;13.70;99.90;;;;;;5082278;28;20474;-56
2022/09/23 09:07:06;;;;;;;8.30;7.38;;;13.80;99.90;;;;;;5079475;28;20535;-55
2022/09/23 09:09:36;;;;;;;12.23;7.25;;;13.90;99.90;;;;;;5078311;28;20044;-57
2022/09/23 09:12:29;;;;;;;16.33;7.47;;;13.90;99.90;;;;;;5071196;28;20040;-55
2022/09/23 09:15:04;;;;;;;11.98;7.15;;;13.90;99.90;;;;;;5072109;28;20389;-55
2022/09/23 09:17:52;;;;;;;14.23;8.27;;;14.00;99.90;;;;;;5101826;27;20127;-53
2022/09/23 09:20:41;;;;;;;10.50;8.25;;;14.00;99.90;;;;;;5091243;28;20038;-55
2022/09/23 09:23:15;;;;;;;9.32;7.05;;;14.00;99.90;;;;;;5095822;27;20040;-55
2022/09/23 09:25:51;;;;;;;11.63;7.15;;;14.10;99.90;;;;;;5096042;27;20075;-56
2022/09/23 09:28:29;;;;;;;11.77;8.23;;;14.10;99.90;;;;;;5114722;27;20039;-54
2022/09/23 09:31:13;;;;;;;9.85;8.10;;;14.10;99.90;;;;;;5114196;27;20034;-55
2022/09/23 09:34:05;;;;;;;8.55;7.00;;;14.20;99.90;;;;;;5118958;27;20051;-56
2022/09/23 09:36:48;;;;;;;12.93;7.53;;;14.20;99.90;;;;;;5115754;28;20082;-54
2022/09/23 09:39:15;;;;;;;9.77;7.43;;;14.20;99.90;;;;;;5110705;27;20418;-56
2022/09/23 09:41:46;;;;;;;9.02;8.02;;;14.30;99.90;;;;;;5091899;28;20036;-55
2022/09/23 09:44:23;;;;;;;14.00;8.05;;;14.30;99.90;;;;;;5109495;27;20066;-55
2022/09/23 09:47:14;;;;;;;7.45;6.75;;;14.40;99.90;;;;;;5115574;27;20101;-57
2022/09/23 09:49:41;;;;;;;12.63;7.30;;;14.40;99.90;;;;;;5114851;27;20041;-56
2022/09/23 09:52:20;;;;;;;8.65;7.40;;;14.50;99.90;;;;;;5114601;27;20085;-55
2022/09/23 09:54:48;;;;;;;10.10;7.43;;;14.50;99.90;;;;;;5093619;28;20450;-53
2022/09/23 09:57:37;;;;;;;10.07;7.05;;;14.60;99.90;;;;;;5116782;27;20071;-55
2022/09/23 10:00:25;;;;;;;8.80;7.40;;;14.70;99.90;;;;;;5109286;28;20040;-55
2022/09/23 10:03:25;;;;;;;7.35;6.43;;;14.80;99.90;;;;;;5115412;27;20035;-55
2022/09/23 10:05:53;;;;;;;6.97;6.38;;;14.90;99.90;;;;;;5118148;27;20054;-56
2022/09/23 10:08:34;;;;;;;11.65;7.60;;;15.00;99.90;;;;;;5128288;27;20046;-56
2022/09/23 10:11:16;;;;;;;8.80;6.97;;;15.10;99.90;;;;;;5124849;27;20043;-55
2022/09/23 10:14:12;;;;;;;7.82;7.00;;;15.10;99.90;;;;;;5120045;27;20067;-57
2022/09/23 10:16:40;;;;;;;8.07;7.35;;;15.30;99.90;;;;;;5109610;28;20039;-53
2022/09/23 10:19:33;;;;;;;8.70;6.53;;;15.30;99.90;;;;;;5120747;27;20480;-55
2022/09/23 10:22:03;;;;;;;8.55;6.25;;;15.30;99.90;;;;;;5120510;27;20040;-55
2022/09/23 10:24:35;;;;;;;7.72;6.20;;;15.30;99.90;;;;;;5126105;27;20039;-55
2022/09/23 10:27:08;;;;;;;11.07;7.05;;;15.40;99.90;;;;;;5139795;27;20092;-55
2022/09/23 10:29:39;;;;;;;9.23;6.25;;;15.40;99.90;;;;;;5143332;27;21469;-52
2022/09/23 10:32:28;;;;;;;9.07;7.10;;;15.40;99.90;;;;;;5137932;27;20050;-54
2022/09/23 10:35:07;;;;;;;8.80;6.45;;;15.40;99.50;;;;;;5137060;27;20442;-53
2022/09/23 10:37:47;;;;;;;11.18;6.47;;;15.40;99.80;;;;;;5118339;27;20411;-54
2022/09/23 10:46:46;;;;;;;10.05;6.65;;;15.50;99.50;;;;;;5134316;27;20071;-57
2022/09/23 10:49:20;;;;;;;9.30;6.28;;;15.50;99.40;;;;;;5114780;27;20263;-58
2022/09/23 10:52:01;;;;;;;7.95;6.35;;;15.50;99.40;;;;;;5133523;27;20043;-55
2022/09/23 10:54:58;;;;;;;7.95;6.03;;;15.60;99.40;;;;;;5112565;27;20067;-56
2022/09/23 10:57:46;;;;;;;12.02;7.07;;;15.60;99.40;;;;;;5145132;27;20042;-55
2022/09/23 11:00:38;;;;;;;7.82;6.10;;;15.70;99.50;;;;;;5146393;27;20168;-56
2022/09/23 11:03:24;;;;;;;17.52;7.47;;;15.70;99.40;;;;;;5133173;27;20043;-57
2022/09/23 11:06:04;;;;;;;9.25;6.32;;;15.80;99.70;;;;;;5136890;27;20049;-56
2022/09/23 11:08:53;;;;;;;11.77;7.00;;;15.90;99.80;;;;;;5133648;27;20066;-58
2022/09/23 11:11:46;;;;;;;9.57;6.32;;;16.00;99.90;;;;;;5135696;27;20039;-56
2022/09/23 11:14:15;;;;;;;16.45;7.13;;;16.10;99.90;;;;;;5140555;27;20411;-57
2022/09/23 11:16:54;;;;;;;12.23;6.68;;;16.20;99.80;;;;;;5126108;27;20044;-54
2022/09/23 11:19:40;;;;;;;9.48;6.05;;;16.40;99.90;;;;;;5125953;27;20039;-55
2022/09/23 11:22:23;;;;;;;6.53;5.50;;;16.50;99.00;;;;;;5125434;27;20062;-56
2022/09/23 11:25:22;;;;;;;6.85;5.28;;;16.60;99.00;;;;;;5115835;27;20593;-54
2022/09/23 11:28:03;;;;;;;8.68;5.63;;;16.70;98.70;;;;;;5122291;27;20043;-57
2022/09/23 11:30:47;;;;;;;8.15;5.72;;;16.80;98.90;;;;;;5131244;27;20043;-57
2022/09/23 11:33:43;;;;;;;7.97;5.88;;;16.80;98.00;;;;;;5129330;27;20035;-54
2022/09/23 11:36:24;;;;;;;8.00;5.38;;;16.80;97.90;;;;;;5111895;28;20040;-53
2022/09/23 11:38:53;;;;;;;11.10;6.05;;;16.80;97.60;;;;;;5116242;27;20046;-55
2022/09/23 11:41:25;;;;;;;9.27;5.57;;;16.90;97.90;;;;;;5132801;27;20039;-54
2022/09/23 11:44:03;;;;;;;6.85;6.15;;;16.80;97.70;;;;;;5097852;27;20045;-57
2022/09/23 11:46:34;;;;;;;7.55;6.13;;;16.90;97.80;;;;;;5151084;27;20402;-57
2022/09/23 11:49:08;;;;;;;7.95;5.78;;;16.90;97.60;;;;;;5138885;27;20511;-55
2022/09/23 11:51:43;;;;;;;6.47;5.05;;;16.80;97.70;;;;;;5132274;27;20039;-54
2022/09/23 11:54:25;;;;;;;8.00;5.90;;;16.80;97.60;;;;;;5113361;27;20715;-57
2022/09/23 11:56:59;;;;;;;7.68;5.57;;;16.90;98.10;;;;;;5111899;28;20036;-54
2022/09/23 11:59:48;;;;;;;9.82;5.53;;;16.90;97.60;;;;;;5116473;27;20046;-55
2022/09/23 12:02:25;;;;;;;9.50;5.63;;;16.80;97.30;;;;;;5153573;27;20507;-57
2022/09/23 12:05:01;;;;;;;9.75;5.57;;;16.80;97.80;;;;;;5126352;27;20380;-54
2022/09/23 12:07:38;;;;;;;11.07;7.00;;;16.80;97.20;;;;;;5128902;27;20040;-55
2022/09/23 12:10:05;;;;;;;;;;;16.80;97.30;;;;;;5145002;27;20039;-54
2022/09/23 12:12:49;;;;;;;10.48;6.38;;;16.80;97.40;;;;;;5136096;27;20009;-57
2022/09/23 12:15:41;;;;;;;9.20;6.03;;;16.80;97.50;;;;;;5133458;27;20042;-55
2022/09/23 12:18:20;;;;;;;9.05;5.75;;;16.80;97.20;;;;;;5134820;27;20134;-57
2022/09/23 12:21:04;;;;;;;7.28;6.10;;;16.80;97.30;;;;;;5122968;27;20553;-55
2022/09/23 12:23:46;;;;;;;9.77;5.53;;;16.80;97.70;;;;;;5124325;27;20067;-56
2022/09/23 12:26:18;;;;;;;8.82;5.35;;;16.80;98.00;;;;;;5144067;27;20054;-55
2022/09/23 12:28:48;;;;;;;8.80;5.68;;;16.90;98.00;;;;;;5144338;27;20064;-56
2022/09/23 12:31:16;;;;;;;10.68;6.47;;;16.80;97.40;;;;;;5135267;27;20095;-57
2022/09/23 12:33:53;;;;;;;9.52;6.45;;;16.80;97.60;;;;;;5152456;27;20045;-55
2022/09/23 12:36:34;;;;;;;10.55;6.38;;;16.80;97.60;;;;;;5132586;27;20058;-58
2022/09/23 12:39:16;;;;;;;11.27;6.15;;;16.80;97.10;;;;;;5129383;27;20499;-56
2022/09/23 12:41:45;;;;;;;8.98;6.68;;;16.80;97.90;;;;;;5144047;27;20030;-54
2022/09/23 12:44:13;;;;;;;7.25;6.28;;;16.70;97.60;;;;;;5133613;27;20039;-53
2022/09/23 12:47:07;;;;;;;6.97;6.15;;;16.70;97.80;;;;;;5149823;27;20050;-57
2022/09/23 12:49:36;;;;;;;8.27;5.82;;;16.70;97.80;;;;;;5143035;27;20038;-57
2022/09/23 12:52:11;;;;;;;8.60;5.55;;;16.70;97.70;;;;;;5149443;27;20122;-58
2022/09/23 12:54:41;;;;;;;7.43;5.72;;;16.70;97.80;;;;;;5151665;27;20452;-54
2022/09/23 12:57:13;;;;;;;9.45;6.70;;;16.70;97.60;;;;;;5117614;27;20047;-55
2022/09/23 12:59:54;;;;;;;9.77;6.68;;;16.70;97.80;;;;;;5110684;28;20081;-56
2022/09/23 13:02:25;;;;;;;10.70;6.65;;;16.60;98.00;;;;;;5126408;27;20624;-54
2022/09/23 13:07:48;;;;;;;9.00;5.88;;;16.60;98.20;;;;;;5129966;27;20473;-56
2022/09/23 13:10:14;;;;;;;10.80;6.65;;;16.60;98.10;;;;;;5109755;27;20074;-54
2022/09/23 13:12:43;;;;;;;10.73;6.90;;;16.60;98.30;;;;;;5151743;27;20078;-54
2022/09/23 13:15:22;;;;;;;9.05;6.95;;;16.60;98.30;;;;;;5111873;27;20324;-54
2022/09/23 13:17:47;;;;;;;9.68;5.68;;;16.60;98.00;;;;;;5111669;27;20046;-57
2022/09/23 13:20:19;;;;;;;9.73;6.35;;;16.60;98.30;;;;;;5110262;28;20411;-55
2022/09/23 13:22:47;;;;;;;7.55;6.22;;;16.60;98.40;;;;;;5132386;27;20039;-53